TED STEVENS ANCHORAGE INTL

PANC (ANC)
Anchorage, Alaska
Towered

Vatsim Metar:
PANC 161453Z 00000KT 10SM OVC075 M11/M14 A3017 RMK AO2 SLP220 T11061144 51006

No ATC Online

Traffic

Inbound:
Ident
Type
Name
ETA
Phase
ASA601
B739/L
Aaron Burno KPHL
17:16 Z
Cruse
CPC94
H/B748/L
Oliver Szavuj YSSY
16:56 Z
Cruse
AXX256
B722/G
Vladimir Linek
17:52 Z
Cruse
PAC948
H/B744/L
Bartek Celinski EGKK
18:15 Z
Cruse
KAL252
H/B77L/L
Joona Kuivala EFHK
19:39 Z
Cruse

Outbound:
Ident
Type
Name
Destination
Phase
AKA1864
AC50
Pierrot Denispouchain LFQT
PAIL
Climb